Cape Cod — WBK3243 — position and weather

sailwx.info

Track history (hours):
 
Tides and Currents Weather Stations Pressure Air Temp Water Temp Dewpoint Dewpoint Depression Visibility Wind Speed Wind Dir Waves Ship Positions

Cape Cod

Owner: MORAN TOWING CORPORATION, New Canaan, CT. More information available from US FCC via Universal Licensing System and Coast Guard Vessel Documentation Center.

Last reported at 2015-Apr-18 08:33 UTC. Time now 2015-Apr-18 08:46 UTC.
Position N 39°53' W 075°11'.

Length 33 m; draft 4.8 m.

Type: Tug. MMSI: 366939770.

Date/timePositionNaut miles runAvg speedWind from/ knotsBaromVisibWave heightAir tempDewpointWater temp
2015-Apr-18 08:33N 39°53' W 075°11'0 0.0
2015-Apr-18 07:33N 39°53' W 075°11'0 0.0
2015-Apr-18 06:33N 39°53' W 075°11'0 0.0
2015-Apr-18 05:34N 39°53' W 075°11'0 0.0
2015-Apr-18 04:33N 39°53' W 075°11'0 0.0
2015-Apr-18 03:33N 39°53' W 075°11'0 0.0
2015-Apr-18 02:33N 39°53' W 075°11'2 2.1
2015-Apr-18 01:34N 39°54' W 075°08'2 2.1
2015-Apr-18 00:34N 39°53' W 075°11'2 2.0
2015-Apr-17 23:33N 39°54' W 075°08'2 2.0
2015-Apr-17 22:33N 39°53' W 075°11'0 0.0
2015-Apr-17 21:33N 39°53' W 075°11'0 0.0
2015-Apr-17 20:33N 39°53' W 075°11'0 0.1
2015-Apr-17 19:33N 39°53' W 075°11'0 0.1
2015-Apr-17 18:33N 39°53' W 075°11'5 4.7
2015-Apr-17 17:33N 39°57' W 075°08'9 9.4
2015-Apr-17 16:33N 40°03' W 074°58'8 1.0
2015-Apr-17 08:33N 40°08' W 074°49'7 7.3
2015-Apr-17 07:33N 40°04' W 074°57'8 7.9
2015-Apr-17 06:33N 39°59' W 075°05'7 7.2
2015-Apr-17 05:33N 39°53' W 075°11'5 4.6
2015-Apr-17 04:33N 39°51' W 075°16'2 1.7
2015-Apr-17 03:33N 39°51' W 075°14'3 3.1
2015-Apr-17 02:34N 39°53' W 075°11'0 0.0
2015-Apr-17 01:33N 39°53' W 075°11'0 0.0
2015-Apr-17 00:33N 39°53' W 075°11'0 0.0
2015-Apr-16 23:33N 39°53' W 075°11'2 2.2
2015-Apr-16 22:33N 39°54' W 075°08'1 1.1
2015-Apr-16 21:33N 39°55' W 075°08'3 2.8
2015-Apr-16 20:33N 39°53' W 075°11'0 0.0
2015-Apr-16 19:33N 39°53' W 075°11'0 0.0
2015-Apr-16 18:33N 39°53' W 075°11'2 1.9
2015-Apr-16 17:33N 39°54' W 075°08'1 1.3
2015-Apr-16 16:33N 39°53' W 075°09'1 1.0
2015-Apr-16 15:33N 39°53' W 075°11'0 0.0
2015-Apr-16 14:33N 39°53' W 075°11'0 0.0
2015-Apr-16 13:33N 39°53' W 075°11'4 4.4
2015-Apr-16 12:33N 39°51' W 075°16'1312.6
2015-Apr-16 11:34N 39°45' W 075°30'2 1.7
2015-Apr-16 10:33N 39°43' W 075°31'1 0.8
2015-Apr-16 09:34N 39°43' W 075°30'6 6.0
2015-Apr-16 08:33N 39°48' W 075°26'1010.0
2015-Apr-16 07:33N 39°51' W 075°14'3 3.3
2015-Apr-16 06:33N 39°53' W 075°11'0 0.0
2015-Apr-16 05:33N 39°53' W 075°11'0 0.0
2015-Apr-16 04:33N 39°53' W 075°11'0 0.0
2015-Apr-16 03:33N 39°53' W 075°11'0 0.0
2015-Apr-16 02:33N 39°53' W 075°11'0 0.0
2015-Apr-16 01:33N 39°53' W 075°11'0 0.0
2015-Apr-16 00:33N 39°53' W 075°11'3 2.6
2015-Apr-15 23:33N 39°54' W 075°08'2 2.2
2015-Apr-15 22:33N 39°53' W 075°10'0 0.1
2015-Apr-15 21:34N 39°53' W 075°10'0 0.5
2015-Apr-15 20:33N 39°53' W 075°11'1 0.9
2015-Apr-15 19:33N 39°53' W 075°10'2 2.0
2015-Apr-15 18:33N 39°53' W 075°12'1 1.3
2015-Apr-15 17:33N 39°53' W 075°11'0 0.0
2015-Apr-15 16:33N 39°53' W 075°11'0 0.0
2015-Apr-15 15:33N 39°53' W 075°11'0 0.0
2015-Apr-15 14:33N 39°53' W 075°11'9 9.3
2015-Apr-15 13:34N 39°50' W 075°22'1312.7
2015-Apr-15 12:33N 39°40' W 075°32'1313.5
2015-Apr-15 11:34N 39°26' W 075°32'1515.1
2015-Apr-15 10:34N 39°15' W 075°19'1514.7
2015-Apr-15 09:34N 39°03' W 075°10'1 1.0
2015-Apr-15 08:33N 39°03' W 075°10'8 8.1
2015-Apr-15 07:33N 39°10' W 075°16'9 9.6
2015-Apr-15 06:33N 39°18' W 075°23'1211.5
2015-Apr-15 05:33N 39°27' W 075°33'1110.7
2015-Apr-15 04:33N 39°37' W 075°35'1010.3
2015-Apr-15 03:33N 39°46' W 075°28'9 8.8
2015-Apr-15 02:33N 39°51' W 075°19'8 7.6
2015-Apr-15 01:33N 39°53' W 075°09'6 5.9
2015-Apr-15 00:33N 39°58' W 075°06'0 0.4
2015-Apr-14 23:33N 39°58' W 075°07'6 5.7
2015-Apr-14 22:33N 39°53' W 075°11'0 0.0
2015-Apr-14 21:33N 39°53' W 075°11'0 0.0
2015-Apr-14 20:33N 39°53' W 075°11'0 0.0
2015-Apr-14 19:33N 39°53' W 075°11'0 0.0
2015-Apr-14 18:33N 39°53' W 075°11'0 0.0
2015-Apr-14 17:33N 39°53' W 075°11'0 0.0
2015-Apr-14 16:33N 39°53' W 075°11'0 0.4
2015-Apr-14 15:33N 39°53' W 075°11'0 0.4
2015-Apr-14 14:34N 39°53' W 075°11'0 0.0
2015-Apr-14 13:33N 39°53' W 075°11'0 0.0
2015-Apr-14 12:33N 39°53' W 075°11'1 0.5
2015-Apr-14 11:33N 39°53' W 075°10'0 0.1
2015-Apr-14 10:33N 39°53' W 075°10'2 1.7
2015-Apr-14 09:33N 39°54' W 075°08'0 0.0
2015-Apr-14 08:33N 39°54' W 075°08'1 0.9
2015-Apr-14 07:33N 39°53' W 075°09'7 7.2
2015-Apr-14 06:33N 39°59' W 075°04'9 8.6
2015-Apr-14 05:33N 40°04' W 074°55'5 1.1
2015-Apr-14 00:27N 40°08' W 074°49'9 9.9
2015-Apr-13 23:34N 40°03' W 074°59'8 7.6
2015-Apr-13 22:34N 39°58' W 075°07'5 5.5
2015-Apr-13 21:34N 39°53' W 075°09'10 9.7
2015-Apr-13 20:33N 39°51' W 075°21'9 8.8
2015-Apr-13 19:33N 39°45' W 075°30'8 8.2
2015-Apr-13 18:34N 39°37' W 075°35'7 7.3
2015-Apr-13 17:34N 39°30' W 075°33'7 6.9
2015-Apr-13 16:34N 39°24' W 075°30'  
2015-Apr-10 22:28N 39°54' W 075°08'  
Track history (hours):
 
Tides and Currents Weather Stations Pressure Air Temp Water Temp Dewpoint Dewpoint Depression Visibility Wind Speed Wind Dir Waves Ship Positions

Cape Cod

Owner: MORAN TOWING CORPORATION, New Canaan, CT. More information available from US FCC via Universal Licensing System and Coast Guard Vessel Documentation Center.

Last reported at 2015-Apr-18 08:33 UTC. Time now 2015-Apr-18 08:46 UTC.
Position N 39°53' W 075°11'.

Length 33 m; draft 4.8 m.

Type: Tug. MMSI: 366939770.

Date/timePositionNaut miles runAvg speedWind from/ knotsBaromVisibWave heightAir tempDewpointWater temp
2015-Apr-18 08:33N 39°53' W 075°11'0 0.0
2015-Apr-18 07:33N 39°53' W 075°11'0 0.0
2015-Apr-18 06:33N 39°53' W 075°11'0 0.0
2015-Apr-18 05:34N 39°53' W 075°11'0 0.0
2015-Apr-18 04:33N 39°53' W 075°11'0 0.0
2015-Apr-18 03:33N 39°53' W 075°11'0 0.0
2015-Apr-18 02:33N 39°53' W 075°11'2 2.1
2015-Apr-18 01:34N 39°54' W 075°08'2 2.1
2015-Apr-18 00:34N 39°53' W 075°11'2 2.0
2015-Apr-17 23:33N 39°54' W 075°08'2 2.0
2015-Apr-17 22:33N 39°53' W 075°11'0 0.0
2015-Apr-17 21:33N 39°53' W 075°11'0 0.0
2015-Apr-17 20:33N 39°53' W 075°11'0 0.1
2015-Apr-17 19:33N 39°53' W 075°11'0 0.1
2015-Apr-17 18:33N 39°53' W 075°11'5 4.7
2015-Apr-17 17:33N 39°57' W 075°08'9 9.4
2015-Apr-17 16:33N 40°03' W 074°58'8 1.0
2015-Apr-17 08:33N 40°08' W 074°49'7 7.3
2015-Apr-17 07:33N 40°04' W 074°57'8 7.9
2015-Apr-17 06:33N 39°59' W 075°05'7 7.2
2015-Apr-17 05:33N 39°53' W 075°11'5 4.6
2015-Apr-17 04:33N 39°51' W 075°16'2 1.7
2015-Apr-17 03:33N 39°51' W 075°14'3 3.1
2015-Apr-17 02:34N 39°53' W 075°11'0 0.0
2015-Apr-17 01:33N 39°53' W 075°11'0 0.0
2015-Apr-17 00:33N 39°53' W 075°11'0 0.0
2015-Apr-16 23:33N 39°53' W 075°11'2 2.2
2015-Apr-16 22:33N 39°54' W 075°08'1 1.1
2015-Apr-16 21:33N 39°55' W 075°08'3 2.8
2015-Apr-16 20:33N 39°53' W 075°11'0 0.0
2015-Apr-16 19:33N 39°53' W 075°11'0 0.0
2015-Apr-16 18:33N 39°53' W 075°11'2 1.9
2015-Apr-16 17:33N 39°54' W 075°08'1 1.3
2015-Apr-16 16:33N 39°53' W 075°09'1 1.0
2015-Apr-16 15:33N 39°53' W 075°11'0 0.0
2015-Apr-16 14:33N 39°53' W 075°11'0 0.0
2015-Apr-16 13:33N 39°53' W 075°11'4 4.4
2015-Apr-16 12:33N 39°51' W 075°16'1312.6
2015-Apr-16 11:34N 39°45' W 075°30'2 1.7
2015-Apr-16 10:33N 39°43' W 075°31'1 0.8
2015-Apr-16 09:34N 39°43' W 075°30'6 6.0
2015-Apr-16 08:33N 39°48' W 075°26'1010.0
2015-Apr-16 07:33N 39°51' W 075°14'3 3.3
2015-Apr-16 06:33N 39°53' W 075°11'0 0.0
2015-Apr-16 05:33N 39°53' W 075°11'0 0.0
2015-Apr-16 04:33N 39°53' W 075°11'0 0.0
2015-Apr-16 03:33N 39°53' W 075°11'0 0.0
2015-Apr-16 02:33N 39°53' W 075°11'0 0.0
2015-Apr-16 01:33N 39°53' W 075°11'0 0.0
2015-Apr-16 00:33N 39°53' W 075°11'3 2.6
2015-Apr-15 23:33N 39°54' W 075°08'2 2.2
2015-Apr-15 22:33N 39°53' W 075°10'0 0.1
2015-Apr-15 21:34N 39°53' W 075°10'0 0.5
2015-Apr-15 20:33N 39°53' W 075°11'1 0.9
2015-Apr-15 19:33N 39°53' W 075°10'2 2.0
2015-Apr-15 18:33N 39°53' W 075°12'1 1.3
2015-Apr-15 17:33N 39°53' W 075°11'0 0.0
2015-Apr-15 16:33N 39°53' W 075°11'0 0.0
2015-Apr-15 15:33N 39°53' W 075°11'0 0.0
2015-Apr-15 14:33N 39°53' W 075°11'9 9.3
2015-Apr-15 13:34N 39°50' W 075°22'1312.7
2015-Apr-15 12:33N 39°40' W 075°32'1313.5
2015-Apr-15 11:34N 39°26' W 075°32'1515.1
2015-Apr-15 10:34N 39°15' W 075°19'1514.7
2015-Apr-15 09:34N 39°03' W 075°10'1 1.0
2015-Apr-15 08:33N 39°03' W 075°10'8 8.1
2015-Apr-15 07:33N 39°10' W 075°16'9 9.6
2015-Apr-15 06:33N 39°18' W 075°23'1211.5
2015-Apr-15 05:33N 39°27' W 075°33'1110.7
2015-Apr-15 04:33N 39°37' W 075°35'1010.3
2015-Apr-15 03:33N 39°46' W 075°28'9 8.8
2015-Apr-15 02:33N 39°51' W 075°19'8 7.6
2015-Apr-15 01:33N 39°53' W 075°09'6 5.9
2015-Apr-15 00:33N 39°58' W 075°06'0 0.4
2015-Apr-14 23:33N 39°58' W 075°07'6 5.7
2015-Apr-14 22:33N 39°53' W 075°11'0 0.0
2015-Apr-14 21:33N 39°53' W 075°11'0 0.0
2015-Apr-14 20:33N 39°53' W 075°11'0 0.0
2015-Apr-14 19:33N 39°53' W 075°11'0 0.0
2015-Apr-14 18:33N 39°53' W 075°11'0 0.0
2015-Apr-14 17:33N 39°53' W 075°11'0 0.0
2015-Apr-14 16:33N 39°53' W 075°11'0 0.4
2015-Apr-14 15:33N 39°53' W 075°11'0 0.4
2015-Apr-14 14:34N 39°53' W 075°11'0 0.0
2015-Apr-14 13:33N 39°53' W 075°11'0 0.0
2015-Apr-14 12:33N 39°53' W 075°11'1 0.5
2015-Apr-14 11:33N 39°53' W 075°10'0 0.1
2015-Apr-14 10:33N 39°53' W 075°10'2 1.7
2015-Apr-14 09:33N 39°54' W 075°08'0 0.0
2015-Apr-14 08:33N 39°54' W 075°08'1 0.9
2015-Apr-14 07:33N 39°53' W 075°09'7 7.2
2015-Apr-14 06:33N 39°59' W 075°04'9 8.6
2015-Apr-14 05:33N 40°04' W 074°55'5 1.1
2015-Apr-14 00:27N 40°08' W 074°49'9 9.9
2015-Apr-13 23:34N 40°03' W 074°59'8 7.6
2015-Apr-13 22:34N 39°58' W 075°07'5 5.5
2015-Apr-13 21:34N 39°53' W 075°09'10 9.7
2015-Apr-13 20:33N 39°51' W 075°21'9 8.8
2015-Apr-13 19:33N 39°45' W 075°30'8 8.2
2015-Apr-13 18:34N 39°37' W 075°35'7 7.3
2015-Apr-13 17:34N 39°30' W 075°33'7 6.9
2015-Apr-13 16:34N 39°24' W 075°30'  
2015-Apr-10 22:28N 39°54' W 075°08'  

Dump ship's entire track history